Terminal Aerodrome Forecast
Issued by NWS

Home | Current Version | Previous Version | Text Only | Print | Product List | Glossary On
Versions: 1 2 3 4 5 6 7 8 9 10 11 12 13 14 15 16
000
FTPQ31 PGUM 290528
TAFGUM
TAF

TAF
PTKK 290528Z 2906/3006 04011KT 6SM -RA VCTS SCT012CB BKN050 OVC100
      TEMPO 2906/2909 3SM SHRA BKN012 OVC040
     FM291000 06014KT P6SM VCSH SCT012 SCT050 OVC100=

USA.gov is the U.S. government's official web portal to all federal, state and local government web resources and services.